createdAt,value
2022-08-26T00:00:55.459Z,1463
2022-08-26T00:02:55.589Z,1463
2022-08-26T00:03:55.443Z,1242
2022-08-26T00:04:55.419Z,1251
2022-08-26T00:05:55.484Z,1242
2022-08-26T00:07:55.611Z,1222
2022-08-26T00:08:55.413Z,1484
2022-08-26T00:09:55.450Z,1283
2022-08-26T00:10:55.419Z,1302
2022-08-26T00:12:55.598Z,1470
2022-08-26T00:13:55.452Z,1534
2022-08-26T00:14:55.419Z,1413
2022-08-26T00:15:55.502Z,1331
2022-08-26T00:17:55.678Z,1316
2022-08-26T00:18:55.463Z,1283
2022-08-26T00:19:55.467Z,1313
2022-08-26T00:20:55.463Z,1316
2022-08-26T00:22:55.663Z,1476
2022-08-26T00:23:55.421Z,1486
2022-08-26T00:24:55.420Z,1441
2022-08-26T00:25:55.426Z,1492
2022-08-26T00:27:55.605Z,1383
2022-08-26T00:28:55.422Z,1463
2022-08-26T00:29:55.426Z,1413
2022-08-26T00:30:55.509Z,1497
2022-08-26T00:32:55.607Z,1302
2022-08-26T00:33:55.485Z,1303
2022-08-26T00:34:55.467Z,1275
2022-08-26T00:35:55.497Z,1369
2022-08-26T00:37:55.627Z,1501
2022-08-26T00:38:55.428Z,1488
2022-08-26T00:39:55.462Z,1488
2022-08-26T00:40:55.470Z,1505
2022-08-26T00:42:55.672Z,1300
2022-08-26T00:43:55.469Z,1494
2022-08-26T00:44:55.476Z,1480
2022-08-26T00:45:55.523Z,1360
2022-08-26T00:47:55.609Z,1303
2022-08-26T00:48:55.478Z,1303
2022-08-26T00:49:55.428Z,1278
2022-08-26T00:50:55.468Z,1298
2022-08-26T00:52:55.686Z,1486
2022-08-26T00:53:55.477Z,1480
2022-08-26T00:54:55.473Z,1480
2022-08-26T00:55:55.432Z,1486
2022-08-26T00:57:55.614Z,1316
2022-08-26T00:58:55.442Z,1496
2022-08-26T00:59:55.441Z,1472
2022-08-26T01:00:55.525Z,1494
2022-08-26T01:02:55.625Z,1296
2022-08-26T01:03:55.484Z,1486
2022-08-26T01:04:56.085Z,1486
2022-08-26T01:05:55.504Z,1480
2022-08-26T01:07:55.631Z,1480
2022-08-26T01:08:55.484Z,1298
2022-08-26T01:09:55.495Z,1285
2022-08-26T01:10:55.908Z,1486
2022-08-26T01:12:55.632Z,1494
2022-08-26T01:13:55.489Z,1482
2022-08-26T01:14:55.498Z,1318
2022-08-26T01:15:55.485Z,1296
2022-08-26T01:17:55.631Z,1323
2022-08-26T01:18:55.444Z,1472
2022-08-26T01:19:55.448Z,1478
2022-08-26T01:20:57.612Z,1478
2022-08-26T01:22:55.644Z,1288
2022-08-26T01:23:57.211Z,1303
2022-08-26T01:24:55.507Z,1296
2022-08-26T01:25:55.481Z,1303
2022-08-26T01:27:55.627Z,1478
2022-08-26T01:28:55.452Z,1482
2022-08-26T01:29:55.522Z,1490
2022-08-26T01:30:55.505Z,1307
2022-08-26T01:32:55.633Z,1496
2022-08-26T01:33:55.490Z,1486
2022-08-26T01:34:55.502Z,1501
2022-08-26T01:35:55.531Z,1325
2022-08-26T01:37:55.647Z,1507
2022-08-26T01:38:55.521Z,1391
2022-08-26T01:39:55.523Z,1530
2022-08-26T01:40:55.502Z,1329
2022-08-26T01:42:55.693Z,1511
2022-08-26T01:43:55.462Z,1528
2022-08-26T01:44:55.505Z,1511
2022-08-26T01:45:55.512Z,1503
2022-08-26T01:47:56.574Z,1503
2022-08-26T01:48:55.501Z,1318
2022-08-26T01:49:55.502Z,1507
2022-08-26T01:50:55.509Z,1520
2022-08-26T01:52:55.728Z,1426
2022-08-26T01:53:55.510Z,1518
2022-08-26T01:54:55.505Z,1332
2022-08-26T01:55:55.459Z,1507
2022-08-26T01:57:56.237Z,1520
2022-08-26T01:58:55.461Z,1518
2022-08-26T01:59:55.468Z,1511
2022-08-26T02:00:55.505Z,1522
2022-08-26T02:02:55.715Z,1329
2022-08-26T02:03:55.460Z,1313
2022-08-26T02:04:55.553Z,1511
2022-08-26T02:05:55.460Z,1518
2022-08-26T02:07:55.661Z,1310
2022-08-26T02:08:55.467Z,1271
2022-08-26T02:09:55.509Z,1496
2022-08-26T02:10:55.505Z,1511
2022-08-26T02:12:55.654Z,1329
2022-08-26T02:13:55.539Z,1501
2022-08-26T02:14:55.537Z,1492
2022-08-26T02:15:55.625Z,1492
2022-08-26T02:17:55.654Z,1520
2022-08-26T02:18:55.512Z,1501
2022-08-26T02:19:55.535Z,1511
2022-08-26T02:20:55.515Z,1503
2022-08-26T02:22:55.652Z,1518
2022-08-26T02:23:56.034Z,1522
2022-08-26T02:24:55.515Z,1496
2022-08-26T02:25:55.524Z,1501
2022-08-26T02:27:55.655Z,1332
2022-08-26T02:28:55.471Z,1320
2022-08-26T02:29:55.478Z,1310
2022-08-26T02:30:55.770Z,1511
2022-08-26T02:32:55.662Z,1310
2022-08-26T02:33:55.515Z,1151
2022-08-26T02:34:55.482Z,1391
2022-08-26T02:35:55.521Z,1494
2022-08-26T02:37:55.673Z,1536
2022-08-26T02:38:55.492Z,1503
2022-08-26T02:39:55.513Z,1329
2022-08-26T02:40:55.527Z,1490
2022-08-26T02:42:55.856Z,1503
2022-08-26T02:43:55.527Z,1480
2022-08-26T02:44:55.524Z,1518
2022-08-26T02:45:55.534Z,1494
2022-08-26T02:47:55.752Z,1346
2022-08-26T02:48:55.509Z,1501
2022-08-26T02:49:55.486Z,1320
2022-08-26T02:50:55.536Z,1486
2022-08-26T02:52:55.680Z,1486
2022-08-26T02:53:55.537Z,1514
2022-08-26T02:54:55.487Z,1325
2022-08-26T02:55:55.496Z,1369
2022-08-26T02:57:55.677Z,1318
2022-08-26T02:58:55.486Z,1575
2022-08-26T02:59:55.560Z,1558
2022-08-26T03:00:55.562Z,1562
2022-08-26T03:02:55.674Z,1566
2022-08-26T03:03:55.492Z,1359
2022-08-26T03:04:57.640Z,1346
2022-08-26T03:05:55.547Z,1364
2022-08-26T03:07:55.670Z,1542
2022-08-26T03:08:55.533Z,1490
2022-08-26T03:09:55.491Z,1486
2022-08-26T03:10:55.492Z,1310
2022-08-26T03:12:55.678Z,1486
2022-08-26T03:13:55.539Z,1313
2022-08-26T03:14:55.556Z,1505
2022-08-26T03:15:55.579Z,1468
2022-08-26T03:17:55.673Z,1313
2022-08-26T03:18:55.536Z,1343
2022-08-26T03:19:56.989Z,1357
2022-08-26T03:20:55.503Z,1352
2022-08-26T03:22:56.096Z,1565
2022-08-26T03:23:55.503Z,1362
2022-08-26T03:24:55.504Z,1343
2022-08-26T03:25:55.571Z,1230
2022-08-26T03:27:55.698Z,1470
2022-08-26T03:28:55.556Z,1307
2022-08-26T03:29:55.544Z,1505
2022-08-26T03:30:55.589Z,1505
2022-08-26T03:32:55.702Z,1501
2022-08-26T03:33:58.812Z,1562
2022-08-26T03:34:55.577Z,1546
2022-08-26T03:35:55.565Z,1357
2022-08-26T03:37:55.772Z,1501
2022-08-26T03:38:55.549Z,1366
2022-08-26T03:39:55.595Z,1545
2022-08-26T03:40:55.514Z,1461
2022-08-26T03:42:55.697Z,1593
2022-08-26T03:43:58.474Z,1366
2022-08-26T03:44:55.510Z,1360
2022-08-26T03:45:55.513Z,1553
2022-08-26T03:47:55.779Z,1545
2022-08-26T03:48:55.545Z,1355
2022-08-26T03:49:55.557Z,1558
2022-08-26T03:50:55.598Z,1562
2022-08-26T03:52:55.759Z,1575
2022-08-26T03:53:55.559Z,1492
2022-08-26T03:54:55.552Z,1499
2022-08-26T03:55:55.518Z,1492
2022-08-26T03:57:55.701Z,1505
2022-08-26T03:58:55.522Z,1466
2022-08-26T03:59:55.565Z,1312
2022-08-26T04:00:55.920Z,1466
2022-08-26T04:02:55.907Z,1322
2022-08-26T04:03:55.517Z,1499
2022-08-26T04:04:55.564Z,1522
2022-08-26T04:05:55.517Z,1532
2022-08-26T04:07:55.718Z,1338
2022-08-26T04:08:55.517Z,1359
2022-08-26T04:09:55.571Z,1350
2022-08-26T04:10:55.519Z,1366
2022-08-26T04:12:55.689Z,1549
2022-08-26T04:13:55.563Z,1569
2022-08-26T04:14:55.557Z,1313
2022-08-26T04:15:55.571Z,1528
2022-08-26T04:17:55.780Z,1416
2022-08-26T04:18:55.525Z,1482
2022-08-26T04:19:55.530Z,1309
2022-08-26T04:20:55.565Z,1499
2022-08-26T04:22:55.724Z,1497
2022-08-26T04:23:55.561Z,1530
2022-08-26T04:24:55.536Z,1549
2022-08-26T04:25:55.579Z,1343
2022-08-26T04:27:55.705Z,1514
2022-08-26T04:28:55.533Z,1334
2022-08-26T04:29:55.576Z,1522
2022-08-26T04:30:55.626Z,1329
2022-08-26T04:32:55.738Z,1505
2022-08-26T04:33:55.531Z,1540
2022-08-26T04:34:55.541Z,1348
2022-08-26T04:35:55.531Z,1505
2022-08-26T04:37:55.804Z,1373
2022-08-26T04:38:55.584Z,1540
2022-08-26T04:39:55.557Z,1536
2022-08-26T04:40:55.576Z,1536
2022-08-26T04:42:55.728Z,1246
2022-08-26T04:43:55.537Z,1492
2022-08-26T04:44:55.550Z,1305
2022-08-26T04:45:55.572Z,1302
2022-08-26T04:47:55.737Z,1305
2022-08-26T04:48:55.538Z,1492
2022-08-26T04:49:55.581Z,1499
2022-08-26T04:50:55.544Z,1522
2022-08-26T04:52:55.768Z,1403
2022-08-26T04:53:55.544Z,1431
2022-08-26T04:54:55.548Z,1424
2022-08-26T04:55:55.589Z,1422
2022-08-26T04:57:55.720Z,1431
2022-08-26T04:58:55.587Z,1465
2022-08-26T04:59:55.551Z,1459
2022-08-26T05:00:55.615Z,1459
2022-08-26T05:02:55.717Z,1459
2022-08-26T05:03:55.565Z,1278
2022-08-26T05:04:55.556Z,1243
2022-08-26T05:05:55.619Z,1445
2022-08-26T05:07:55.729Z,1291
2022-08-26T05:08:55.588Z,1350
2022-08-26T05:09:55.553Z,1451
2022-08-26T05:10:55.554Z,1291
2022-08-26T05:12:55.737Z,1413
2022-08-26T05:13:57.327Z,1163
2022-08-26T05:14:55.556Z,1472
2022-08-26T05:15:55.800Z,1424
2022-08-26T05:17:55.733Z,1496
2022-08-26T05:18:55.595Z,1424
2022-08-26T05:19:55.600Z,1238
2022-08-26T05:20:55.602Z,1248
2022-08-26T05:22:55.806Z,1439
2022-08-26T05:23:55.558Z,1246
2022-08-26T05:24:55.597Z,1240
2022-08-26T05:25:59.067Z,1251
2022-08-26T05:27:55.860Z,1258
2022-08-26T05:28:55.598Z,1139
2022-08-26T05:29:55.559Z,1397
2022-08-26T05:30:55.691Z,1409
2022-08-26T05:32:55.800Z,1373
2022-08-26T05:33:55.576Z,1371
2022-08-26T05:34:55.563Z,1435
2022-08-26T05:35:55.568Z,1416
2022-08-26T05:37:55.804Z,1182
2022-08-26T05:38:55.563Z,1343
2022-08-26T05:39:55.632Z,1538
2022-08-26T05:40:55.644Z,1571
2022-08-26T05:42:55.768Z,1383
2022-08-26T05:43:55.603Z,1511
2022-08-26T05:44:56.331Z,1229
2022-08-26T05:45:55.709Z,1594
2022-08-26T05:47:55.756Z,1635
2022-08-26T05:48:55.639Z,1350
2022-08-26T05:49:55.611Z,1545
2022-08-26T05:50:55.622Z,1545
2022-08-26T05:52:55.747Z,1581
2022-08-26T05:53:55.613Z,1574
2022-08-26T05:54:55.616Z,1484
2022-08-26T05:55:55.645Z,1610
2022-08-26T05:57:55.805Z,1623
2022-08-26T05:58:55.579Z,1316
2022-08-26T05:59:55.575Z,1511
2022-08-26T06:00:55.618Z,1532
2022-08-26T06:02:55.907Z,1526
2022-08-26T06:03:55.624Z,1285
2022-08-26T06:04:55.576Z,1474
2022-08-26T06:05:55.590Z,1271
2022-08-26T06:07:55.762Z,1276
2022-08-26T06:08:55.623Z,1280
2022-08-26T06:10:05.480Z,1418
2022-08-26T06:10:55.628Z,1431
2022-08-26T06:12:55.823Z,1424
2022-08-26T06:13:57.953Z,1375
2022-08-26T06:14:55.588Z,1069
2022-08-26T06:15:55.653Z,1259
2022-08-26T06:17:55.779Z,1320
2022-08-26T06:18:55.618Z,1291
2022-08-26T06:19:55.623Z,1312
2022-08-26T06:20:57.538Z,1157
2022-08-26T06:22:55.761Z,1339
2022-08-26T06:23:55.594Z,1111
2022-08-26T06:24:55.595Z,1251
2022-08-26T06:25:55.637Z,1036
2022-08-26T06:27:55.775Z,1305
2022-08-26T06:28:55.595Z,1077
2022-08-26T06:29:55.631Z,1072
2022-08-26T06:30:55.668Z,1154
2022-08-26T06:32:55.774Z,1127
2022-08-26T06:33:55.668Z,1199
2022-08-26T06:34:55.636Z,1001
2022-08-26T06:35:55.649Z,1220
2022-08-26T06:37:55.842Z,1195
2022-08-26T06:38:55.596Z,1177
2022-08-26T06:39:55.687Z,1180
2022-08-26T06:40:55.640Z,918
2022-08-26T06:42:55.782Z,1016
2022-08-26T06:43:55.630Z,1303
2022-08-26T06:44:55.602Z,1307
2022-08-26T06:45:55.613Z,1334
2022-08-26T06:47:55.809Z,1355
2022-08-26T06:48:55.640Z,1232
2022-08-26T06:49:55.601Z,1066
2022-08-26T06:50:55.610Z,1058
2022-08-26T06:52:55.791Z,1081
2022-08-26T06:53:55.671Z,1058
2022-08-26T06:54:55.655Z,1121
2022-08-26T06:55:55.661Z,1191
2022-08-26T06:57:55.799Z,1251
2022-08-26T06:58:55.833Z,1273
2022-08-26T06:59:55.626Z,1266
2022-08-26T07:00:58.471Z,1246
2022-08-26T07:02:55.833Z,1261
2022-08-26T07:03:57.049Z,1173
2022-08-26T07:04:56.892Z,1214
2022-08-26T07:05:55.687Z,1193
2022-08-26T07:07:55.875Z,1160
2022-08-26T07:08:55.621Z,1183
2022-08-26T07:09:55.655Z,1195
2022-08-26T07:10:55.922Z,1141
2022-08-26T07:12:55.797Z,1208
2022-08-26T07:13:55.614Z,1222
2022-08-26T07:14:55.691Z,1227
2022-08-26T07:15:57.246Z,1245
2022-08-26T07:17:55.815Z,1212
2022-08-26T07:18:55.619Z,1215
2022-08-26T07:19:55.628Z,1236
2022-08-26T07:20:55.664Z,1258
2022-08-26T07:22:55.863Z,1089
2022-08-26T07:24:00.158Z,1302
2022-08-26T07:24:55.629Z,1280
2022-08-26T07:25:55.704Z,1316
2022-08-26T07:27:55.896Z,1336
2022-08-26T07:28:55.630Z,1391
2022-08-26T07:29:55.700Z,1385
2022-08-26T07:30:55.685Z,1420
2022-08-26T07:32:55.866Z,1243
2022-08-26T07:33:55.679Z,1457
2022-08-26T07:34:55.657Z,1465
2022-08-26T07:35:55.669Z,1482
2022-08-26T07:37:57.116Z,1474
2022-08-26T07:38:55.703Z,1476
2022-08-26T07:39:55.804Z,1482
2022-08-26T07:40:55.681Z,1461
2022-08-26T07:42:55.816Z,1366
2022-08-26T07:43:55.682Z,1162
2022-08-26T07:44:55.676Z,1355
2022-08-26T07:45:55.686Z,1369
2022-08-26T07:47:55.818Z,1355
2022-08-26T07:48:55.685Z,1163
2022-08-26T07:49:55.639Z,1171
2022-08-26T07:50:55.682Z,1183
2022-08-26T07:52:55.823Z,1343
2022-08-26T07:53:55.640Z,1359
2022-08-26T07:54:55.645Z,1322
2022-08-26T07:55:55.679Z,1291
2022-08-26T07:57:55.883Z,1248
2022-08-26T07:58:55.685Z,1188
2022-08-26T07:59:55.648Z,1168
2022-08-26T08:00:55.670Z,977
2022-08-26T08:02:55.830Z,1046
2022-08-26T08:03:55.649Z,1077
2022-08-26T08:04:55.682Z,1041
2022-08-26T08:05:55.696Z,879
2022-08-26T08:08:00.838Z,941
2022-08-26T08:08:55.687Z,913
2022-08-26T08:09:55.703Z,887
2022-08-26T08:10:55.697Z,858
2022-08-26T08:12:55.904Z,687
2022-08-26T08:13:56.227Z,696
2022-08-26T08:14:55.655Z,660
2022-08-26T08:15:55.666Z,626
2022-08-26T08:17:57.701Z,693
2022-08-26T08:18:55.715Z,682
2022-08-26T08:19:55.726Z,675
2022-08-26T08:21:05.128Z,653
2022-08-26T08:22:55.934Z,643
2022-08-26T08:23:55.658Z,533
2022-08-26T08:24:55.724Z,540
2022-08-26T08:25:55.749Z,629
2022-08-26T08:27:55.942Z,616
2022-08-26T08:28:55.663Z,610
2022-08-26T08:29:55.702Z,595
2022-08-26T08:30:55.793Z,527
2022-08-26T08:32:55.866Z,530
2022-08-26T08:33:55.704Z,616
2022-08-26T08:34:55.739Z,668
2022-08-26T08:35:55.712Z,673
2022-08-26T08:37:55.938Z,704
2022-08-26T08:38:55.667Z,642
2022-08-26T08:39:55.721Z,645
2022-08-26T08:40:55.672Z,671
2022-08-26T08:42:55.858Z,702
2022-08-26T08:43:55.743Z,696
2022-08-26T08:44:55.754Z,729
2022-08-26T08:45:55.746Z,748
2022-08-26T08:47:55.847Z,798
2022-08-26T08:48:55.721Z,890
2022-08-26T08:49:55.723Z,871
2022-08-26T08:50:55.712Z,944
2022-08-26T08:52:55.866Z,885
2022-08-26T08:53:55.725Z,868
2022-08-26T08:54:55.724Z,921
2022-08-26T08:55:55.674Z,947
2022-08-26T08:57:55.855Z,1202
2022-08-26T08:58:56.773Z,1264
2022-08-26T08:59:55.730Z,1065
2022-08-26T09:00:55.778Z,1375
2022-08-26T09:02:55.864Z,1437
2022-08-26T09:03:55.726Z,1472
2022-08-26T09:04:55.731Z,1553
2022-08-26T09:05:55.688Z,1597
2022-08-26T09:07:55.888Z,1391
2022-08-26T09:08:55.727Z,1808
2022-08-26T09:09:55.687Z,1855
2022-08-26T09:10:55.753Z,1647
2022-08-26T09:12:55.891Z,2086
2022-08-26T09:13:55.734Z,2112
2022-08-26T09:14:55.739Z,2160
2022-08-26T09:15:55.739Z,2084
2022-08-26T09:17:55.892Z,2278
2022-08-26T09:18:55.696Z,2603
2022-08-26T09:19:55.728Z,2618
2022-08-26T09:20:55.765Z,2704
2022-08-26T09:22:55.943Z,2772
2022-08-26T09:23:55.691Z,2640
2022-08-26T09:24:55.706Z,2711
2022-08-26T09:25:55.733Z,2663
2022-08-26T09:27:55.962Z,2749
2022-08-26T09:28:55.743Z,2216
2022-08-26T09:29:55.696Z,2340
2022-08-26T09:30:55.741Z,2591
2022-08-26T09:32:56.362Z,2401
2022-08-26T09:33:55.771Z,2174
2022-08-26T09:34:55.759Z,2353
2022-08-26T09:35:55.749Z,2394
2022-08-26T09:37:55.887Z,2970
2022-08-26T09:38:55.703Z,2967
2022-08-26T09:39:55.740Z,2967
2022-08-26T09:40:56.083Z,2464
2022-08-26T09:42:55.889Z,2882
2022-08-26T09:43:55.705Z,3161
2022-08-26T09:44:55.920Z,3179
2022-08-26T09:45:58.528Z,3140
2022-08-26T09:47:55.913Z,2613
2022-08-26T09:48:56.231Z,2618
2022-08-26T09:49:55.746Z,2394
2022-08-26T09:50:55.716Z,2831
2022-08-26T09:52:55.944Z,3092
2022-08-26T09:53:55.712Z,3343
2022-08-26T09:54:55.720Z,3414
2022-08-26T09:55:55.753Z,3388
2022-08-26T09:57:55.886Z,3343
2022-08-26T09:58:55.776Z,2717
2022-08-26T09:59:55.762Z,2711
2022-08-26T10:00:55.750Z,3424
2022-08-26T10:02:57.851Z,3237
2022-08-26T10:03:55.742Z,2741
2022-08-26T10:04:55.755Z,2817
2022-08-26T10:05:55.771Z,3446
2022-08-26T10:07:55.987Z,3562
2022-08-26T10:08:55.804Z,3519
2022-08-26T10:09:55.719Z,3519
2022-08-26T10:10:55.731Z,3539
2022-08-26T10:12:55.902Z,3652
2022-08-26T10:13:55.722Z,3562
2022-08-26T10:14:55.761Z,3592
2022-08-26T10:15:55.768Z,3618
2022-08-26T10:17:55.999Z,3720
2022-08-26T10:18:59.872Z,3898
2022-08-26T10:19:57.573Z,3898
2022-08-26T10:20:55.726Z,3984
2022-08-26T10:22:55.931Z,4045
2022-08-26T10:23:55.775Z,4063
2022-08-26T10:24:55.773Z,4063
2022-08-26T10:25:58.972Z,3948
2022-08-26T10:27:55.925Z,4063
2022-08-26T10:28:55.805Z,4056
2022-08-26T10:29:55.775Z,4002
2022-08-26T10:30:55.737Z,4234
2022-08-26T10:32:55.914Z,4110
2022-08-26T10:33:58.768Z,4138
2022-08-26T10:34:55.783Z,4138
2022-08-26T10:35:55.781Z,3883
2022-08-26T10:37:55.911Z,3828
2022-08-26T10:38:55.742Z,4214
2022-08-26T10:39:57.410Z,4427
2022-08-26T10:40:55.737Z,4352
2022-08-26T10:42:55.916Z,4315
2022-08-26T10:43:55.744Z,3446
2022-08-26T10:44:58.508Z,4290
2022-08-26T10:45:55.825Z,4398
2022-08-26T10:47:55.941Z,3604
2022-08-26T10:48:55.744Z,3772
2022-08-26T10:50:00.091Z,4452
2022-08-26T10:50:55.747Z,4178
2022-08-26T10:52:55.922Z,4725
2022-08-26T10:53:55.801Z,4478
2022-08-26T10:54:55.816Z,4525
2022-08-26T10:55:55.795Z,4406
2022-08-26T10:57:55.940Z,3691
2022-08-26T10:58:55.792Z,4992
2022-08-26T10:59:55.801Z,4037
2022-08-26T11:00:55.866Z,4146
2022-08-26T11:02:55.934Z,4114
2022-08-26T11:03:57.983Z,3586
2022-08-26T11:04:55.799Z,4940
2022-08-26T11:05:55.753Z,4114
2022-08-26T11:07:55.926Z,5031
2022-08-26T11:08:55.794Z,4154
2022-08-26T11:09:55.800Z,4222
2022-08-26T11:10:55.807Z,5167
2022-08-26T11:12:55.939Z,4222
2022-08-26T11:13:55.757Z,5060
2022-08-26T11:14:58.994Z,5007
2022-08-26T11:15:55.803Z,4859
2022-08-26T11:17:55.944Z,4578
2022-08-26T11:18:55.761Z,4897
2022-08-26T11:20:01.362Z,4551
2022-08-26T11:20:55.812Z,4940
2022-08-26T11:22:55.938Z,4826
2022-08-26T11:23:55.802Z,4729
2022-08-26T11:24:55.807Z,4729
2022-08-26T11:25:55.814Z,3887
2022-08-26T11:27:55.965Z,3984
2022-08-26T11:28:55.837Z,3835
2022-08-26T11:29:55.812Z,3813
2022-08-26T11:30:57.955Z,3864
2022-08-26T11:32:55.957Z,4675
2022-08-26T11:33:55.814Z,4693
2022-08-26T11:34:56.292Z,4246
2022-08-26T11:35:55.819Z,4793
2022-08-26T11:37:55.961Z,4693
2022-08-26T11:38:55.820Z,3794
2022-08-26T11:39:57.075Z,4775
2022-08-26T11:40:55.770Z,3853
2022-08-26T11:42:55.952Z,4816
2022-08-26T11:43:55.816Z,3835
2022-08-26T11:44:57.903Z,4779
2022-08-26T11:45:55.831Z,4652
2022-08-26T11:47:55.951Z,4652
2022-08-26T11:48:55.781Z,4254
2022-08-26T11:49:55.845Z,5197
2022-08-26T11:50:55.828Z,4431
2022-08-26T11:52:55.965Z,4254
2022-08-26T11:53:55.779Z,4725
2022-08-26T11:54:55.829Z,4911
2022-08-26T11:55:55.804Z,4052
2022-08-26T11:57:55.964Z,4166
2022-08-26T11:58:55.830Z,5083
2022-08-26T11:59:55.837Z,4210
2022-08-26T12:00:55.840Z,5327
2022-08-26T12:02:55.976Z,5378
2022-08-26T12:03:55.824Z,5125
2022-08-26T12:04:55.858Z,3795
2022-08-26T12:05:55.828Z,5207
2022-08-26T12:07:55.964Z,4888
2022-08-26T12:08:55.833Z,4949
2022-08-26T12:09:56.355Z,4693
2022-08-26T12:10:55.788Z,5227
2022-08-26T12:12:55.974Z,5141
2022-08-26T12:13:55.795Z,4347
2022-08-26T12:14:55.789Z,5368
2022-08-26T12:15:56.111Z,5277
2022-08-26T12:17:55.965Z,5031
2022-08-26T12:18:55.834Z,4226
2022-08-26T12:19:55.799Z,5031
2022-08-26T12:20:55.837Z,4190
2022-08-26T12:22:55.989Z,4190
2022-08-26T12:23:55.863Z,5182
2022-08-26T12:24:55.854Z,5425
2022-08-26T12:25:55.838Z,5614
2022-08-26T12:27:55.978Z,5614
2022-08-26T12:28:55.803Z,5182
2022-08-26T12:29:55.859Z,5262
2022-08-26T12:30:55.849Z,4226
2022-08-26T12:32:58.259Z,4294
2022-08-26T12:33:55.812Z,5358
2022-08-26T12:34:55.831Z,5358
2022-08-26T12:35:56.492Z,5297
2022-08-26T12:37:56.022Z,4068
2022-08-26T12:38:58.218Z,4949
2022-08-26T12:39:55.910Z,3597
2022-08-26T12:40:55.882Z,5030
2022-08-26T12:42:55.997Z,4845
2022-08-26T12:43:55.817Z,4327
2022-08-26T12:44:55.868Z,4327
2022-08-26T12:45:55.913Z,4465
2022-08-26T12:47:56.006Z,5493
2022-08-26T12:48:55.820Z,4897
2022-08-26T12:49:55.825Z,4840
2022-08-26T12:50:55.876Z,4010
2022-08-26T12:52:56.068Z,3898
2022-08-26T12:53:55.824Z,5614
2022-08-26T12:54:56.922Z,5031
2022-08-26T12:55:55.897Z,5614
2022-08-26T12:57:56.031Z,5723
2022-08-26T12:58:55.828Z,4418
2022-08-26T12:59:55.821Z,5337
2022-08-26T13:00:55.966Z,5277
2022-08-26T13:02:56.011Z,4307
2022-08-26T13:03:55.874Z,4517
2022-08-26T13:05:00.026Z,4352
2022-08-26T13:05:55.831Z,5707
2022-08-26T13:07:56.027Z,4817
2022-08-26T13:08:55.876Z,5712
2022-08-26T13:09:55.889Z,4565
2022-08-26T13:10:55.877Z,4666
2022-08-26T13:12:56.013Z,5957
2022-08-26T13:13:55.834Z,5393
2022-08-26T13:14:55.896Z,5277
2022-08-26T13:15:55.947Z,4393
2022-08-26T13:17:56.038Z,4427
2022-08-26T13:18:55.884Z,5555
2022-08-26T13:19:58.027Z,4439
2022-08-26T13:20:55.837Z,5157
2022-08-26T13:22:58.943Z,5603
2022-08-26T13:23:55.891Z,5895
2022-08-26T13:24:55.880Z,5040
2022-08-26T13:25:55.889Z,4573
2022-08-26T13:27:56.027Z,4612
2022-08-26T13:29:01.586Z,5767
2022-08-26T13:29:55.912Z,5723
2022-08-26T13:30:55.891Z,5895
2022-08-26T13:32:56.024Z,5940
2022-08-26T13:33:55.845Z,4573
2022-08-26T13:34:55.885Z,5646
2022-08-26T13:35:55.909Z,5646
2022-08-26T13:37:56.093Z,4648
2022-08-26T13:38:55.880Z,4393
2022-08-26T13:39:55.901Z,4845
2022-08-26T13:40:55.854Z,6267
2022-08-26T13:42:56.098Z,5131
2022-08-26T13:43:55.851Z,5895
2022-08-26T13:44:55.897Z,4845
2022-08-26T13:45:55.852Z,5030
2022-08-26T13:47:56.036Z,6021
2022-08-26T13:48:55.901Z,6201
2022-08-26T13:49:55.865Z,4992
2022-08-26T13:50:55.859Z,6387
2022-08-26T13:52:56.036Z,5957
2022-08-26T13:53:55.855Z,4639
2022-08-26T13:54:55.865Z,4591
2022-08-26T13:55:55.859Z,5353
2022-08-26T13:57:56.044Z,5630
2022-08-26T13:58:55.860Z,4729
2022-08-26T13:59:55.932Z,5860
2022-08-26T14:00:55.973Z,5620
2022-08-26T14:02:56.062Z,4604
2022-08-26T14:03:55.971Z,4840
2022-08-26T14:04:55.924Z,6099
2022-08-26T14:05:55.920Z,5860
2022-08-26T14:07:56.107Z,4926
2022-08-26T14:08:55.868Z,5723
2022-08-26T14:09:55.945Z,5723
2022-08-26T14:10:55.863Z,5783
2022-08-26T14:12:56.141Z,4715
2022-08-26T14:13:55.868Z,4916
2022-08-26T14:14:55.871Z,4652
2022-08-26T14:15:55.914Z,5860
2022-08-26T14:17:56.075Z,5810
2022-08-26T14:18:55.916Z,5986
2022-08-26T14:19:55.900Z,5986
2022-08-26T14:20:55.913Z,4926
2022-08-26T14:23:12.936Z,6249
2022-08-26T14:23:59.028Z,6003
2022-08-26T14:24:55.927Z,4702
2022-08-26T14:25:55.875Z,6003
2022-08-26T14:27:56.069Z,5934
2022-08-26T14:28:55.882Z,5849
2022-08-26T14:29:55.958Z,5974
2022-08-26T14:30:55.968Z,4639
2022-08-26T14:32:56.063Z,6201
2022-08-26T14:33:55.875Z,5561
2022-08-26T14:34:55.885Z,4564
2022-08-26T14:35:55.948Z,5509
2022-08-26T14:37:56.063Z,5663
2022-08-26T14:38:55.875Z,5872
2022-08-26T14:39:55.951Z,6049
2022-08-26T14:40:55.921Z,4626
2022-08-26T14:42:56.139Z,6116
2022-08-26T14:43:55.886Z,5832
2022-08-26T14:44:55.911Z,6053
2022-08-26T14:45:55.928Z,5021
2022-08-26T14:47:56.063Z,6003
2022-08-26T14:48:56.664Z,6088
2022-08-26T14:49:55.893Z,4987
2022-08-26T14:50:55.928Z,4987
2022-08-26T14:52:56.080Z,6088
2022-08-26T14:53:55.897Z,6279
2022-08-26T14:54:55.890Z,6399
2022-08-26T14:55:55.962Z,5252
2022-08-26T14:57:56.159Z,6467
2022-08-26T14:58:55.923Z,5849
2022-08-26T14:59:55.936Z,5712
2022-08-26T15:00:55.920Z,4599
2022-08-26T15:02:56.167Z,5712
2022-08-26T15:03:55.938Z,5861
2022-08-26T15:04:55.938Z,5620
2022-08-26T15:05:55.948Z,4738
2022-08-26T15:07:56.081Z,5861
2022-08-26T15:08:55.942Z,6183
2022-08-26T15:09:55.909Z,6183
2022-08-26T15:10:55.937Z,6315
2022-08-26T15:12:56.101Z,4679
2022-08-26T15:13:55.944Z,6049
2022-08-26T15:14:55.943Z,6049
2022-08-26T15:15:55.966Z,5985
2022-08-26T15:17:56.091Z,6116
2022-08-26T15:18:55.903Z,4465
2022-08-26T15:19:55.945Z,5674
2022-08-26T15:20:55.957Z,5734
2022-08-26T15:22:56.183Z,4591
2022-08-26T15:23:55.896Z,6038
2022-08-26T15:24:55.971Z,4916
2022-08-26T15:25:55.974Z,5663
2022-08-26T15:27:56.080Z,4648
2022-08-26T15:28:55.947Z,4883
2022-08-26T15:29:55.950Z,5782
2022-08-26T15:30:55.970Z,4530
2022-08-26T15:32:56.088Z,4935
2022-08-26T15:33:55.915Z,4935
2022-08-26T15:34:55.949Z,4935
2022-08-26T15:35:55.959Z,6145
2022-08-26T15:37:56.121Z,6145
2022-08-26T15:38:55.915Z,6374
2022-08-26T15:39:55.999Z,5227
2022-08-26T15:40:57.780Z,6581
2022-08-26T15:43:06.081Z,6725
2022-08-26T15:43:55.910Z,5555
2022-08-26T15:44:55.955Z,5614
2022-08-26T15:45:55.996Z,5555
2022-08-26T15:48:01.007Z,5555
2022-08-26T15:48:55.912Z,5021
2022-08-26T15:49:55.912Z,5021
2022-08-26T15:50:55.918Z,5069
2022-08-26T15:52:56.110Z,6279
2022-08-26T15:53:55.922Z,4752
2022-08-26T15:54:55.971Z,5843
2022-08-26T15:55:56.368Z,4418
2022-08-26T15:57:56.101Z,4444
2022-08-26T15:58:56.186Z,6014
2022-08-26T15:59:55.994Z,5889
2022-08-26T16:00:55.970Z,5889
2022-08-26T16:02:56.112Z,5826
2022-08-26T16:03:55.925Z,5663
2022-08-26T16:04:55.924Z,5604
2022-08-26T16:05:56.091Z,4465
2022-08-26T16:07:56.169Z,5923
2022-08-26T16:08:55.966Z,4752
2022-08-26T16:09:55.986Z,5571
2022-08-26T16:10:55.932Z,4530
2022-08-26T16:12:56.124Z,5571
2022-08-26T16:13:55.970Z,5889
2022-08-26T16:14:55.933Z,4868
2022-08-26T16:15:55.961Z,5889
2022-08-26T16:16:56.448Z,5707
2022-08-26T16:17:56.109Z,4599
2022-08-26T16:18:55.983Z,5739
2022-08-26T16:19:55.932Z,5986
2022-08-26T16:21:13.113Z,5810
2022-08-26T16:22:56.124Z,4478
2022-08-26T16:23:56.010Z,5696
2022-08-26T16:24:55.984Z,5756
2022-08-26T16:25:55.995Z,4543
2022-08-26T16:27:56.153Z,4339
2022-08-26T16:28:56.005Z,5282
2022-08-26T16:29:55.938Z,5142
2022-08-26T16:30:56.012Z,4226
2022-08-26T16:32:56.177Z,4954
2022-08-26T16:33:55.974Z,5045
2022-08-26T16:34:56.480Z,5045
2022-08-26T16:35:55.988Z,4807
2022-08-26T16:37:56.191Z,4729
2022-08-26T16:38:55.991Z,4591